Grazzanise, Italy

10:33 AM CEST on August 31, 2015 (GMT +0200)
Grazzanise Mil | | Change Station
CLOSE
Current Station
Airport
Location: Grazzanise,
Elevation: 33 ft
Nearby Weather Stations

Elev 33 ft 41.06 °N, 14.08 °E | Updated 38 minutes ago

Partly Cloudy
Partly Cloudy
86 °F
Feels Like 88 °F
N
4
Wind Variable Wind from ENE

Today
High -- | Low -- °F
--% Chance of Precip.
Yesterday
High -- | Low -- °F
Precip. -- in
6:28 AM 7:38 PM
Waning Gibbous, 96% visible
Pressure 30.04 in
Visibility 6.2 miles
Clouds Few 5000 ft
Heat Index 88 °F
Dew Point 66 °F
Humidity 51%
Rainfall 0.00 in
Snow Depth Not available.
UV 4 out of 12
Pollen Not available.
Air Quality Not available.
Flu Activity Not available.
METAR LIRM 310755Z 07003KT 9999 FEW050 30/19 Q1017
Pressure 30.04 in
Visibility 6.2 miles
Clouds Few 5000 ft
Heat Index 88 °F
Dew Point 66 °F
Humidity 51%
Rainfall 0.00 in
Snow Depth Not available.
UV 4 out of 12
Pollen Not available.
Air Quality Not available.
Flu Activity Not available.
METAR LIRM 310755Z 07003KT 9999 FEW050 30/19 Q1017

10-Day Weather Forecast

×

Almanac

Astronomy

Aug. 31, 2015 Rise Set
Actual Time
Civil Twilight
Nautical Twilight
Astronomical Twilight
Moon
Length of Visible Light
Length of Day
Tomorrow will be .
, % of the Moon is Illuminated

Today's Extremes

Country Highs Country Lows

Community

WunderPhotos

Upload Photos

1,851,220 photos uploaded!

WunderBlogs® & News

Nearby

Air Quality

  Air Quality AQ Index Pollutant
Not available.

Snow Depth

Station Depth Elevation

Earthquake Activity

City Distance Mag. Time & Date
Minimum magnitude displayed is 2.5.

Coastal Water Temperatures

Place Temperature

Stations

Nearby Weather Stations

Station Location Temp. Windchill Dew Point Humidity Wind Precip. Elev Updated Type